< < Back
Terminal Aerodrome Forecast


Current Version              Previous Versions:   1  2  3  4  5  6  7  8  9  

Terminal Aerodrome Forecast

715
FTUS42 KILM 182335
TAFFLO
TAF
KFLO 182335Z 1900/1924 14006KT P6SM VCSH SCT025 BKN035 BKN090
     FM190600 09003KT 4SM BR VCSH BKN007 OVC015
      TEMPO 1908/1912 2SM -RA BR SCT004 OVC007
     FM191200 10006KT 5SM -SHRA SCT007 BKN015
     FM191400 13010KT 3SM SHRA BKN012
     FM191700 16011G18KT 6SM -RA BR BKN007 OVC012=

Latest METAR

240
SAUS70 KWBC 191100 RRC
MTRFLO
METAR KFLO 191053Z 08006KT 10SM SCT011 SCT047 BKN075 18/17 A2997 RMK AO2
SLP144 T01830172


USA.gov is the U.S. government's official web portal to all federal, state and local government web resources and services.